sensor_id;sensor_type;location;lat;lon;timestamp;pressure;altitude;pressure_sealevel;temperature;humidity
60427;BME280;46274;47.168;27.604;2023-03-04T00:00:28;100019.00;;;-0.07;72.16
60427;BME280;46274;47.168;27.604;2023-03-04T00:06:30;99990.69;;;-0.08;71.55
60427;BME280;46274;47.168;27.604;2023-03-04T00:12:34;100010.28;;;-0.09;71.70
60427;BME280;46274;47.168;27.604;2023-03-04T00:18:39;99983.28;;;-0.28;72.41
60427;BME280;46274;47.168;27.604;2023-03-04T00:24:41;99926.25;;;-0.62;72.94
60427;BME280;46274;47.168;27.604;2023-03-04T00:30:44;99986.09;;;-0.06;73.85
60427;BME280;46274;47.168;27.604;2023-03-04T00:36:46;99949.19;;;-0.23;74.78
60427;BME280;46274;47.168;27.604;2023-03-04T00:42:48;99936.22;;;-0.40;74.50
60427;BME280;46274;47.168;27.604;2023-03-04T00:48:50;99961.66;;;-0.49;75.05
60427;BME280;46274;47.168;27.604;2023-03-04T00:54:52;99957.56;;;-1.04;76.78
60427;BME280;46274;47.168;27.604;2023-03-04T01:00:55;99954.16;;;-0.68;76.64
60427;BME280;46274;47.168;27.604;2023-03-04T01:06:57;99936.06;;;-0.76;78.34
60427;BME280;46274;47.168;27.604;2023-03-04T01:12:59;99940.94;;;-0.57;76.15
60427;BME280;46274;47.168;27.604;2023-03-04T01:19:01;99914.56;;;-1.11;78.24
60427;BME280;46274;47.168;27.604;2023-03-04T01:25:03;99868.84;;;-1.55;79.25
60427;BME280;46274;47.168;27.604;2023-03-04T01:31:06;99814.84;;;-1.81;78.52
60427;BME280;46274;47.168;27.604;2023-03-04T01:37:08;99869.81;;;-1.04;76.80
60427;BME280;46274;47.168;27.604;2023-03-04T01:43:17;99892.47;;;-0.49;74.74
60427;BME280;46274;47.168;27.604;2023-03-04T01:49:21;99894.19;;;-0.98;76.41
60427;BME280;46274;47.168;27.604;2023-03-04T01:55:24;99887.31;;;-0.63;75.06
60427;BME280;46274;47.168;27.604;2023-03-04T02:01:27;99801.78;;;-1.33;76.25
60427;BME280;46274;47.168;27.604;2023-03-04T02:07:31;99835.81;;;-0.75;75.05
60427;BME280;46274;47.168;27.604;2023-03-04T02:13:41;99858.00;;;-1.51;79.40
60427;BME280;46274;47.168;27.604;2023-03-04T02:26:21;99847.38;;;-1.64;79.53
60427;BME280;46274;47.168;27.604;2023-03-04T02:32:24;99777.59;;;-2.19;80.03
60427;BME280;46274;47.168;27.604;2023-03-04T02:38:26;99700.41;;;-2.29;79.49
60427;BME280;46274;47.168;27.604;2023-03-04T02:44:41;99804.63;;;-1.87;80.87
60427;BME280;46274;47.168;27.604;2023-03-04T02:50:47;99809.47;;;-2.06;81.33
60427;BME280;46274;47.168;27.604;2023-03-04T02:56:55;99819.69;;;-2.00;82.32
60427;BME280;46274;47.168;27.604;2023-03-04T03:03:02;99804.75;;;-1.76;80.20
60427;BME280;46274;47.168;27.604;2023-03-04T03:09:05;99772.19;;;-2.17;82.38
60427;BME280;46274;47.168;27.604;2023-03-04T03:15:12;99793.16;;;-1.74;80.67
60427;BME280;46274;47.168;27.604;2023-03-04T03:21:14;99740.63;;;-2.35;81.09
60427;BME280;46274;47.168;27.604;2023-03-04T03:27:17;99766.59;;;-2.00;80.59
60427;BME280;46274;47.168;27.604;2023-03-04T03:33:22;99775.91;;;-2.07;82.85
60427;BME280;46274;47.168;27.604;2023-03-04T03:39:25;99773.06;;;-1.40;78.71
60427;BME280;46274;47.168;27.604;2023-03-04T03:45:27;99766.59;;;-2.00;80.58
60427;BME280;46274;47.168;27.604;2023-03-04T03:51:32;99721.91;;;-2.46;83.05
60427;BME280;46274;47.168;27.604;2023-03-04T03:57:34;99760.56;;;-1.64;78.29
60427;BME280;46274;47.168;27.604;2023-03-04T04:03:37;99622.63;;;-2.16;76.41
60427;BME280;46274;47.168;27.604;2023-03-04T04:09:41;99741.25;;;-2.31;79.51
60427;BME280;46274;47.168;27.604;2023-03-04T04:15:47;99670.41;;;-1.91;76.51
60427;BME280;46274;47.168;27.604;2023-03-04T04:21:49;99737.84;;;-1.81;77.55
60427;BME280;46274;47.168;27.604;2023-03-04T04:28:02;99734.72;;;-1.49;75.15
60427;BME280;46274;47.168;27.604;2023-03-04T04:34:05;99648.28;;;-2.43;77.47
60427;BME280;46274;47.168;27.604;2023-03-04T04:40:08;99691.72;;;-1.67;74.81
60427;BME280;46274;47.168;27.604;2023-03-04T04:46:12;99727.31;;;-1.69;75.48
60427;BME280;46274;47.168;27.604;2023-03-04T04:52:14;99685.88;;;-2.23;76.79
60427;BME280;46274;47.168;27.604;2023-03-04T04:58:16;99711.59;;;-1.98;76.52
60427;BME280;46274;47.168;27.604;2023-03-04T05:04:18;99650.50;;;-2.49;78.11
60427;BME280;46274;47.168;27.604;2023-03-04T05:10:38;99708.38;;;-2.16;77.58
60427;BME280;46274;47.168;27.604;2023-03-04T05:16:41;99713.44;;;-2.78;79.91
60427;BME280;46274;47.168;27.604;2023-03-04T05:22:44;99675.16;;;-2.22;77.08
60427;BME280;46274;47.168;27.604;2023-03-04T05:28:46;99646.38;;;-2.41;76.97
60427;BME280;46274;47.168;27.604;2023-03-04T05:34:47;99704.38;;;-1.96;76.38
60427;BME280;46274;47.168;27.604;2023-03-04T05:41:02;99695.88;;;-2.01;76.42
60427;BME280;46274;47.168;27.604;2023-03-04T05:47:05;99664.72;;;-2.25;78.28
60427;BME280;46274;47.168;27.604;2023-03-04T05:53:07;99690.13;;;-1.82;77.74
60427;BME280;46274;47.168;27.604;2023-03-04T05:59:10;99652.97;;;-1.95;79.36
60427;BME280;46274;47.168;27.604;2023-03-04T06:05:13;99684.13;;;-1.47;79.80
60427;BME280;46274;47.168;27.604;2023-03-04T06:11:15;99675.53;;;-1.51;79.95
60427;BME280;46274;47.168;27.604;2023-03-04T06:17:18;99637.66;;;-1.05;78.81
60427;BME280;46274;47.168;27.604;2023-03-04T06:23:23;99670.63;;;-1.32;81.54
60427;BME280;46274;47.168;27.604;2023-03-04T06:29:26;99657.59;;;-0.40;79.06
60427;BME280;46274;47.168;27.604;2023-03-04T06:35:28;99638.13;;;-0.40;79.49
60427;BME280;46274;47.168;27.604;2023-03-04T06:41:31;99660.94;;;-0.14;78.95
60427;BME280;46274;47.168;27.604;2023-03-04T06:47:33;99655.88;;;0.28;78.51
60427;BME280;46274;47.168;27.604;2023-03-04T06:53:37;99649.56;;;0.63;77.05
60427;BME280;46274;47.168;27.604;2023-03-04T06:59:39;99564.81;;;0.23;78.31
60427;BME280;46274;47.168;27.604;2023-03-04T07:05:42;99614.41;;;0.80;77.56
60427;BME280;46274;47.168;27.604;2023-03-04T07:11:45;99626.81;;;1.35;77.25
60427;BME280;46274;47.168;27.604;2023-03-04T07:17:48;99625.34;;;1.63;77.14
60427;BME280;46274;47.168;27.604;2023-03-04T07:23:52;99615.88;;;1.59;78.52
60427;BME280;46274;47.168;27.604;2023-03-04T07:29:54;99613.19;;;2.41;76.58
60427;BME280;46274;47.168;27.604;2023-03-04T07:35:58;99549.09;;;2.10;75.90
60427;BME280;46274;47.168;27.604;2023-03-04T07:42:00;99584.09;;;2.57;74.74
60427;BME280;46274;47.168;27.604;2023-03-04T07:48:03;99558.41;;;2.95;73.78
60427;BME280;46274;47.168;27.604;2023-03-04T07:54:05;99571.34;;;3.48;72.33
60427;BME280;46274;47.168;27.604;2023-03-04T08:00:10;99451.00;;;3.37;70.96
60427;BME280;46274;47.168;27.604;2023-03-04T08:06:15;99551.03;;;4.58;68.97
60427;BME280;46274;47.168;27.604;2023-03-04T08:12:18;99528.09;;;5.17;66.72
60427;BME280;46274;47.168;27.604;2023-03-04T08:18:20;99442.69;;;5.47;62.95
60427;BME280;46274;47.168;27.604;2023-03-04T08:24:30;99477.44;;;6.09;62.30
60427;BME280;46274;47.168;27.604;2023-03-04T08:30:36;99507.72;;;6.70;60.25
60427;BME280;46274;47.168;27.604;2023-03-04T08:36:40;99451.22;;;6.94;60.03
60427;BME280;46274;47.168;27.604;2023-03-04T08:42:57;99396.53;;;6.77;59.54
60427;BME280;46274;47.168;27.604;2023-03-04T08:49:10;99460.22;;;7.59;59.37
60427;BME280;46274;47.168;27.604;2023-03-04T08:55:15;99423.81;;;7.63;58.04
60427;BME280;46274;47.168;27.604;2023-03-04T09:01:22;99406.06;;;8.16;58.73
60427;BME280;46274;47.168;27.604;2023-03-04T09:07:38;99445.00;;;8.53;58.01
60427;BME280;46274;47.168;27.604;2023-03-04T09:13:43;99347.91;;;8.14;56.94
60427;BME280;46274;47.168;27.604;2023-03-04T09:19:48;99428.56;;;9.09;57.42
60427;BME280;46274;47.168;27.604;2023-03-04T09:26:11;99402.63;;;9.00;55.89
60427;BME280;46274;47.168;27.604;2023-03-04T09:32:20;99313.22;;;9.24;56.36
60427;BME280;46274;47.168;27.604;2023-03-04T09:38:33;99398.38;;;9.94;54.28
60427;BME280;46274;47.168;27.604;2023-03-04T09:44:42;99386.69;;;10.09;53.32
60427;BME280;46274;47.168;27.604;2023-03-04T09:51:11;99382.34;;;10.14;52.75
60427;BME280;46274;47.168;27.604;2023-03-04T09:57:49;99311.38;;;10.12;51.59
60427;BME280;46274;47.168;27.604;2023-03-04T10:10:38;99324.28;;;11.03;49.68
60427;BME280;46274;47.168;27.604;2023-03-04T10:16:53;99303.97;;;10.92;48.69
60427;BME280;46274;47.168;27.604;2023-03-04T10:23:09;99324.59;;;11.21;46.87
60427;BME280;46274;47.168;27.604;2023-03-04T10:29:27;99319.00;;;11.64;47.57
60427;BME280;46274;47.168;27.604;2023-03-04T10:35:37;99296.88;;;11.67;46.05
60427;BME280;46274;47.168;27.604;2023-03-04T10:42:00;99155.94;;;10.84;46.50
60427;BME280;46274;47.168;27.604;2023-03-04T10:48:18;99182.09;;;11.12;44.77
60427;BME280;46274;47.168;27.604;2023-03-04T10:54:48;99265.06;;;11.96;43.85
60427;BME280;46274;47.168;27.604;2023-03-04T11:01:04;99262.13;;;11.91;43.71
60427;BME280;46274;47.168;27.604;2023-03-04T11:07:25;99251.91;;;11.93;44.03
60427;BME280;46274;47.168;27.604;2023-03-04T11:13:59;99192.31;;;11.85;42.69
60427;BME280;46274;47.168;27.604;2023-03-04T11:26:55;99209.53;;;12.18;43.85
60427;BME280;46274;47.168;27.604;2023-03-04T11:39:33;98965.59;;;10.89;43.75
60427;BME280;46274;47.168;27.604;2023-03-04T11:45:49;99199.28;;;12.54;44.76
60427;BME280;46274;47.168;27.604;2023-03-04T12:18:39;99151.19;;;12.54;42.07
60427;BME280;46274;47.168;27.604;2023-03-04T12:31:36;99016.56;;;11.73;41.74
60427;BME280;46274;47.168;27.604;2023-03-04T12:44:16;99104.25;;;12.14;43.35
60427;BME280;46274;47.168;27.604;2023-03-04T12:56:58;99129.31;;;12.22;42.08
60427;BME280;46274;47.168;27.604;2023-03-04T13:09:31;99085.88;;;12.09;42.99
60427;BME280;46274;47.168;27.604;2023-03-04T13:15:58;99079.41;;;11.97;42.55
60427;BME280;46274;47.168;27.604;2023-03-04T13:28:43;99087.56;;;12.04;42.83
60427;BME280;46274;47.168;27.604;2023-03-04T13:34:52;99088.59;;;11.89;43.60
60427;BME280;46274;47.168;27.604;2023-03-04T13:41:22;99105.94;;;12.08;43.09
60427;BME280;46274;47.168;27.604;2023-03-04T13:47:43;99108.03;;;12.06;43.06
60427;BME280;46274;47.168;27.604;2023-03-04T14:00:18;99098.38;;;11.77;43.18
60427;BME280;46274;47.168;27.604;2023-03-04T14:06:32;98919.47;;;10.56;43.45
60427;BME280;46274;47.168;27.604;2023-03-04T14:12:44;99076.47;;;11.65;43.97
60427;BME280;46274;47.168;27.604;2023-03-04T14:19:11;99076.69;;;11.70;42.93
60427;BME280;46274;47.168;27.604;2023-03-04T14:25:32;99068.31;;;11.39;44.93
60427;BME280;46274;47.168;27.604;2023-03-04T14:31:37;98996.50;;;10.95;44.97
60427;BME280;46274;47.168;27.604;2023-03-04T14:50:46;99047.78;;;11.03;45.87
60427;BME280;46274;47.168;27.604;2023-03-04T14:57:19;99073.69;;;11.19;46.54
60427;BME280;46274;47.168;27.604;2023-03-04T15:04:06;99031.75;;;10.46;46.59
60427;BME280;46274;47.168;27.604;2023-03-04T15:10:37;98807.34;;;9.21;46.07
60427;BME280;46274;47.168;27.604;2023-03-04T15:17:01;99063.44;;;10.53;46.72
60427;BME280;46274;47.168;27.604;2023-03-04T15:29:48;99031.13;;;10.10;46.97
60427;BME280;46274;47.168;27.604;2023-03-04T15:36:16;98904.97;;;9.39;45.98
60427;BME280;46274;47.168;27.604;2023-03-04T15:42:55;98876.34;;;8.67;47.01
60427;BME280;46274;47.168;27.604;2023-03-04T15:49:11;99046.84;;;9.43;48.30
60427;BME280;46274;47.168;27.604;2023-03-04T15:55:23;99006.31;;;9.22;48.09
60427;BME280;46274;47.168;27.604;2023-03-04T16:01:33;99049.56;;;9.22;48.57
60427;BME280;46274;47.168;27.604;2023-03-04T16:07:45;99025.09;;;8.72;49.26
60427;BME280;46274;47.168;27.604;2023-03-04T16:14:01;98954.63;;;8.30;49.33
60427;BME280;46274;47.168;27.604;2023-03-04T16:20:13;99054.13;;;8.85;49.54
60427;BME280;46274;47.168;27.604;2023-03-04T16:26:32;98969.81;;;8.17;49.45
60427;BME280;46274;47.168;27.604;2023-03-04T16:32:55;99062.84;;;8.36;50.49
60427;BME280;46274;47.168;27.604;2023-03-04T16:39:03;99070.09;;;8.20;50.94
60427;BME280;46274;47.168;27.604;2023-03-04T16:45:17;99037.16;;;7.95;50.81
60427;BME280;46274;47.168;27.604;2023-03-04T16:51:24;99043.69;;;8.01;50.82
60427;BME280;46274;47.168;27.604;2023-03-04T16:57:42;99080.38;;;7.72;51.69
60427;BME280;46274;47.168;27.604;2023-03-04T17:04:04;99072.13;;;7.51;52.01
60427;BME280;46274;47.168;27.604;2023-03-04T17:10:19;99068.00;;;7.17;52.79
60427;BME280;46274;47.168;27.604;2023-03-04T17:16:33;99085.88;;;7.56;52.00
60427;BME280;46274;47.168;27.604;2023-03-04T17:22:45;99079.66;;;7.09;53.32
60427;BME280;46274;47.168;27.604;2023-03-04T17:28:53;99003.31;;;6.79;52.49
60427;BME280;46274;47.168;27.604;2023-03-04T17:34:58;99070.63;;;7.25;52.03
60427;BME280;46274;47.168;27.604;2023-03-04T17:41:28;99067.47;;;7.21;52.14
60427;BME280;46274;47.168;27.604;2023-03-04T17:47:36;99073.09;;;7.12;52.39
60427;BME280;46274;47.168;27.604;2023-03-04T17:54:00;99038.13;;;6.81;52.53
60427;BME280;46274;47.168;27.604;2023-03-04T18:00:04;98997.84;;;5.77;55.45
60427;BME280;46274;47.168;27.604;2023-03-04T18:06:29;98862.41;;;5.47;53.38
60427;BME280;46274;47.168;27.604;2023-03-04T18:12:50;99091.56;;;6.92;52.97
60427;BME280;46274;47.168;27.604;2023-03-04T18:18:54;99096.09;;;6.91;52.66
60427;BME280;46274;47.168;27.604;2023-03-04T18:25:08;99086.34;;;6.90;52.78
60427;BME280;46274;47.168;27.604;2023-03-04T18:31:27;99099.97;;;6.89;52.88
60427;BME280;46274;47.168;27.604;2023-03-04T18:37:41;99102.72;;;6.81;53.28
60427;BME280;46274;47.168;27.604;2023-03-04T18:43:47;98955.66;;;5.86;53.61
60427;BME280;46274;47.168;27.604;2023-03-04T18:49:52;99033.53;;;6.19;53.62
60427;BME280;46274;47.168;27.604;2023-03-04T18:56:22;99121.13;;;6.61;54.01
60427;BME280;46274;47.168;27.604;2023-03-04T19:02:35;99085.72;;;5.52;55.93
60427;BME280;46274;47.168;27.604;2023-03-04T19:08:38;99176.06;;;5.61;57.42
60427;BME280;46274;47.168;27.604;2023-03-04T19:14:40;99168.59;;;5.06;61.29
60427;BME280;46274;47.168;27.604;2023-03-04T19:20:42;99223.47;;;4.77;63.73
60427;BME280;46274;47.168;27.604;2023-03-04T19:26:44;99240.78;;;4.31;65.83
60427;BME280;46274;47.168;27.604;2023-03-04T19:32:46;99256.41;;;3.91;67.63
60427;BME280;46274;47.168;27.604;2023-03-04T19:38:50;99265.00;;;3.77;67.52
60427;BME280;46274;47.168;27.604;2023-03-04T19:44:52;99194.69;;;3.12;68.10
60427;BME280;46274;47.168;27.604;2023-03-04T19:50:55;99244.44;;;3.04;69.71
60427;BME280;46274;47.168;27.604;2023-03-04T19:56:57;99289.06;;;3.14;69.98
60427;BME280;46274;47.168;27.604;2023-03-04T20:03:00;99274.81;;;2.86;70.92
60427;BME280;46274;47.168;27.604;2023-03-04T20:09:02;99259.28;;;2.61;71.65
60427;BME280;46274;47.168;27.604;2023-03-04T20:15:06;99285.91;;;2.53;72.71
60427;BME280;46274;47.168;27.604;2023-03-04T20:21:10;99303.84;;;2.71;71.68
60427;BME280;46274;47.168;27.604;2023-03-04T20:27:13;99278.56;;;2.55;71.32
60427;BME280;46274;47.168;27.604;2023-03-04T20:33:17;99307.13;;;2.65;71.72
60427;BME280;46274;47.168;27.604;2023-03-04T20:39:19;99260.03;;;2.34;71.17
60427;BME280;46274;47.168;27.604;2023-03-04T20:45:34;99326.13;;;2.42;71.70
60427;BME280;46274;47.168;27.604;2023-03-04T20:51:41;99324.31;;;2.52;70.13
60427;BME280;46274;47.168;27.604;2023-03-04T20:57:44;99334.88;;;2.44;69.43
60427;BME280;46274;47.168;27.604;2023-03-04T21:03:49;99272.19;;;2.09;69.49
60427;BME280;46274;47.168;27.604;2023-03-04T21:09:51;99326.88;;;2.25;70.01
60427;BME280;46274;47.168;27.604;2023-03-04T21:15:53;99313.81;;;2.02;69.76
60427;BME280;46274;47.168;27.604;2023-03-04T21:21:57;99332.22;;;1.95;69.82
60427;BME280;46274;47.168;27.604;2023-03-04T21:28:01;99334.88;;;1.86;70.29
60427;BME280;46274;47.168;27.604;2023-03-04T21:34:03;99324.47;;;1.83;69.78
60427;BME280;46274;47.168;27.604;2023-03-04T21:40:07;99360.50;;;2.08;68.70
60427;BME280;46274;47.168;27.604;2023-03-04T21:46:13;99352.88;;;2.42;67.50
60427;BME280;46274;47.168;27.604;2023-03-04T21:52:19;99328.69;;;2.34;67.28
60427;BME280;46274;47.168;27.604;2023-03-04T21:58:22;99320.84;;;2.23;66.84
60427;BME280;46274;47.168;27.604;2023-03-04T22:04:25;99320.09;;;1.12;70.23
60427;BME280;46274;47.168;27.604;2023-03-04T22:10:27;99328.72;;;2.14;66.48
60427;BME280;46274;47.168;27.604;2023-03-04T22:16:39;99365.97;;;2.06;67.61
60427;BME280;46274;47.168;27.604;2023-03-04T22:22:55;99370.88;;;2.01;67.18
60427;BME280;46274;47.168;27.604;2023-03-04T22:29:00;99363.84;;;2.29;66.30
60427;BME280;46274;47.168;27.604;2023-03-04T22:35:04;99277.63;;;1.59;66.88
60427;BME280;46274;47.168;27.604;2023-03-04T22:41:15;99383.81;;;2.06;67.83
60427;BME280;46274;47.168;27.604;2023-03-04T22:47:18;99374.81;;;2.16;67.36
60427;BME280;46274;47.168;27.604;2023-03-04T22:53:21;99375.53;;;2.18;67.29
60427;BME280;46274;47.168;27.604;2023-03-04T22:59:26;99351.75;;;1.96;68.08
60427;BME280;46274;47.168;27.604;2023-03-04T23:05:28;99373.84;;;2.17;68.07
60427;BME280;46274;47.168;27.604;2023-03-04T23:11:32;99373.97;;;2.45;66.85
60427;BME280;46274;47.168;27.604;2023-03-04T23:17:36;99271.34;;;1.99;66.85
60427;BME280;46274;47.168;27.604;2023-03-04T23:23:45;99296.66;;;2.14;66.35
60427;BME280;46274;47.168;27.604;2023-03-04T23:29:50;99285.97;;;1.95;66.46
60427;BME280;46274;47.168;27.604;2023-03-04T23:35:53;99376.94;;;2.71;66.17
60427;BME280;46274;47.168;27.604;2023-03-04T23:41:56;99322.09;;;2.28;66.50
60427;BME280;46274;47.168;27.604;2023-03-04T23:47:58;99364.28;;;2.64;66.11
60427;BME280;46274;47.168;27.604;2023-03-04T23:54:01;99343.03;;;2.43;65.91
